Date,TemperatureHighF,TemperatureAvgF,TemperatureLowF,DewpointHighF,DewpointAvgF,DewpointLowF,HumidityHigh,HumidityAvg,HumidityLow,PressureMaxIn,PressureMinIn,WindSpeedMaxMPH,WindSpeedAvgMPH,GustSpeedMaxMPH,PrecipitationSumIn
2012-4-18,75.0,63.6,52.0,54.0,52.5,50.0,93,70,46,44.37,40.00,6,2,0,0.00
2012-4-19,80.0,61.4,44.0,61.0,52.8,43.0,99,77,44,44.37,40.00,3,2,0,0.00
2012-4-20,78.0,63.5,48.0,61.0,56.1,47.0,99,79,49,44.28,40.00,5,3,0,0.00
2012-4-21,61.0,50.3,16.0,52.0,40.2,-99.9,99,83,72,44.27,40.00,8,6,0,0.00
2012-4-22,66.0,52.9,38.0,47.0,42.2,36.0,93,69,44,44.22,40.00,8,5,0,0.00
2012-4-23,62.0,52.2,41.0,41.0,33.9,28.0,83,53,28,44.25,40.00,10,6,0,0.00
2012-4-24,73.0,58.5,30.0,48.0,41.3,30.0,99,58,33,44.34,40.00,7,3,0,0.00
2012-4-25,84.0,69.3,47.0,63.0,55.3,43.0,85,62,48,44.25,40.00,8,4,0,0.00
2012-4-26,84.0,73.5,63.0,65.0,61.2,57.0,85,66,50,44.30,40.00,8,5,0,0.00
2012-4-27,83.0,68.8,52.0,69.0,60.8,51.0,96,77,53,44.35,40.00,7,2,0,0.00
2012-4-28,85.0,56.8,14.0,64.0,43.6,-99.9,99,73,45,44.36,40.00,6,3,0,0.00
2012-4-29,88.0,71.1,22.0,67.0,57.5,21.0,98,67,40,44.45,40.00,4,2,0,0.00
2012-4-30,89.0,57.7,6.0,67.0,46.8,6.0,100,73,45,44.39,40.00,5,2,0,0.00
2012-5-1,90.0,50.8,4.0,69.0,43.6,3.0,100,82,46,44.41,40.00,5,1,0,0.00
2012-5-2,92.0,67.0,-1.0,72.0,54.8,-1.0,99,69,44,44.37,40.00,5,2,0,0.00
2012-5-3,70.0,54.7,8.0,63.0,51.7,8.0,98,90,78,0.00,40.00,6,3,0,0.00
2012-5-4,84.0,46.2,-26.0,72.0,39.8,-26.0,100,82,65,44.43,40.00,5,3,0,0.00
2012-5-5,88.0,52.5,-14.0,74.0,42.3,-99.9,100,81,56,44.38,40.00,6,2,0,0.00
2012-5-6,90.0,45.2,-31.0,69.0,36.1,-31.0,100,77,41,44.32,40.00,3,1,0,0.00
2012-5-7,69.0,56.8,45.0,62.0,54.8,45.0,99,93,78,44.31,40.00,5,2,0,0.00
2012-5-8,83.0,48.4,-34.0,69.0,41.6,-34.0,100,81,59,44.29,40.00,5,2,0,0.00
2012-5-9,78.0,63.7,46.0,58.0,53.4,45.0,97,73,41,44.30,40.00,6,3,0,0.00
2012-5-10,77.0,63.6,2.0,56.0,47.4,2.0,100,61,34,44.33,40.00,4,2,0,0.00
2012-5-11,81.0,65.8,36.0,61.0,49.9,36.0,100,62,35,44.42,40.00,3,2,0,0.00
2012-5-12,80.0,69.6,48.0,65.0,54.3,-99.9,99,70,59,44.44,40.00,7,4,0,0.00
2012-5-13,68.0,57.8,53.0,63.0,56.5,52.0,98,95,85,44.39,40.00,5,3,0,0.00
2012-5-14,77.0,58.6,47.0,68.0,56.6,47.0,100,93,76,44.32,40.00,3,2,0,0.00
2012-5-15,80.0,57.7,6.0,66.0,51.0,6.0,100,82,51,44.36,40.00,5,2,0,0.00
2012-5-16,85.0,61.6,10.0,66.0,50.3,10.0,100,73,35,44.35,40.00,4,2,0,0.00
2012-5-17,89.0,65.2,26.0,69.0,54.7,26.0,100,75,36,44.34,40.00,4,1,0,0.00
2012-5-18,89.0,69.5,46.0,69.0,59.7,46.0,100,76,42,44.37,40.00,4,2,0,0.00
2012-5-19,88.0,68.6,47.0,70.0,55.1,-99.9,100,73,42,44.41,40.00,4,1,0,0.00
2012-5-20,88.0,67.5,46.0,69.0,59.3,46.0,100,79,44,44.45,40.00,5,1,0,0.00
2012-5-21,82.0,68.2,52.0,70.0,61.5,52.0,99,81,55,44.39,29.98,5,2,0,0.00
2012-5-22,81.0,64.8,51.0,67.0,58.9,51.0,99,83,54,30.02,29.92,4,2,0,0.00
2012-5-23,86.0,67.8,43.0,64.0,54.9,43.0,100,70,35,29.97,29.90,3,1,0,0.00
2012-5-24,91.0,73.5,44.0,71.0,62.2,44.0,100,72,42,29.98,29.90,6,3,0,0.00
2012-5-25,92.0,76.8,54.0,73.0,66.3,54.0,99,74,46,30.11,29.98,5,2,0,0.00
2012-5-26,95.0,74.9,50.0,73.0,63.2,50.0,100,73,38,30.16,30.06,3,1,0,0.00
2012-5-27,95.0,74.3,21.0,75.0,62.2,21.0,100,72,39,30.10,29.98,3,1,0,0.00
2012-5-28,94.0,79.0,56.0,73.0,66.0,56.0,100,69,36,30.05,29.93,4,2,0,0.00
2012-5-29,94.0,79.0,55.0,73.0,66.8,55.0,99,70,43,29.98,29.88,5,2,0,0.00
2012-5-30,95.0,75.0,51.0,70.0,60.9,49.0,100,70,21,29.96,29.88,3,1,0,0.00
2012-5-31,90.0,76.7,65.0,70.0,66.4,63.0,93,73,49,29.94,29.83,7,3,0,0.00
2012-6-1,74.0,67.5,50.0,66.0,58.1,49.0,96,74,52,29.98,29.85,8,4,0,0.00
2012-6-2,80.0,63.2,42.0,60.0,50.3,-99.9,99,72,45,30.05,29.96,4,2,0,0.00
2012-6-3,89.0,68.5,48.0,74.0,62.5,48.0,100,83,57,30.03,29.93,4,2,0,0.00
2012-6-4,83.0,67.7,56.0,74.0,64.5,56.0,100,90,69,29.98,29.86,3,2,0,0.00
2012-6-5,84.0,73.2,58.0,73.0,65.3,58.0,100,78,54,29.91,29.83,7,3,0,0.00
2012-6-6,84.0,71.5,51.0,62.0,56.7,51.0,98,64,35,30.00,29.90,7,3,0,0.00
2012-6-7,87.0,70.7,47.0,68.0,59.3,47.0,100,72,37,30.06,30.00,4,2,0,0.00
2012-6-8,90.0,72.3,50.0,69.0,60.9,50.0,100,72,37,30.08,29.99,3,1,0,0.00
2012-6-9,85.0,72.9,54.0,69.0,57.4,-99.9,100,70,43,30.07,29.98,6,3,0,0.00
2012-6-10,79.0,69.5,62.0,75.0,67.6,62.0,99,94,85,30.02,29.98,4,2,0,0.00
2012-6-11,89.0,72.2,61.0,78.0,68.8,61.0,100,90,62,30.05,29.91,8,3,0,0.00
2012-6-12,86.0,70.7,54.0,72.0,65.0,54.0,100,84,60,30.08,30.00,7,3,0,0.00
2012-6-13,89.0,75.1,55.0,68.0,61.1,55.0,100,68,34,30.06,29.98,5,2,0,0.00
2012-6-14,93.0,77.0,51.0,74.0,64.4,51.0,100,71,41,30.06,30.00,3,2,0,0.00
2012-6-15,91.0,80.0,62.0,75.0,69.5,62.0,98,73,49,30.14,30.04,5,2,0,0.00
2012-6-16,89.0,76.8,66.0,69.0,65.8,63.0,96,74,43,30.20,30.12,4,2,0,0.00
2012-6-17,91.0,74.0,53.0,70.0,60.4,53.0,100,69,39,30.13,30.05,4,2,0,0.00
2012-6-18,92.0,80.3,54.0,70.0,64.8,54.0,100,64,39,30.09,30.05,4,3,0,0.00
2012-6-19,91.0,82.8,56.0,68.0,63.9,56.0,100,56,36,30.15,30.07,4,2,0,0.00
2012-6-20,92.0,84.5,59.0,74.0,65.2,59.0,100,56,36,30.15,30.05,4,2,0,0.00
2012-6-21,95.0,77.5,54.0,74.0,64.2,54.0,100,71,36,30.11,29.97,3,1,0,0.00
2012-6-22,96.0,81.1,59.0,72.0,64.5,59.0,100,64,31,30.01,29.92,5,2,0,0.00
2012-6-23,99.0,81.3,58.0,71.0,63.7,58.0,100,63,28,30.00,29.95,5,2,0,0.00
2012-6-24,100.0,82.6,58.0,72.0,64.5,57.0,99,63,25,30.01,29.89,5,2,0,0.00
2012-6-25,101.0,85.7,61.0,74.0,65.0,61.0,99,57,29,29.93,29.82,8,4,0,0.00
2012-6-26,96.0,84.1,63.0,65.0,55.0,39.0,71,41,14,29.92,29.85,7,4,0,0.00
2012-6-27,99.0,76.8,51.0,69.0,58.1,50.0,98,62,21,30.04,29.93,4,1,0,0.00
2012-6-28,104.0,80.7,56.0,70.0,61.8,55.0,99,63,21,30.09,30.00,4,1,0,0.00
2012-6-29,106.0,83.8,60.0,73.0,65.4,60.0,99,63,22,30.05,29.95,4,2,0,0.00
2012-6-30,105.0,104.3,104.0,66.0,65.1,64.0,30,29,28,29.97,29.94,4,3,0,0.00
2012-7-1,104.0,84.0,65.0,75.0,70.1,65.0,98,70,32,30.06,29.97,4,1,0,0.00
2012-7-2,97.0,82.2,71.0,74.0,71.2,66.0,95,71,42,30.12,30.02,7,3,0,0.00
2012-7-3,102.0,81.1,63.0,75.0,63.4,49.0,100,67,17,30.09,29.99,5,2,0,0.00
2012-7-4,100.0,82.9,67.0,74.0,69.1,64.0,96,69,32,30.09,30.02,5,2,0,0.00
2012-7-5,101.0,92.0,76.0,75.0,72.3,70.0,93,55,38,30.08,29.99,6,3,0,0.00
2012-7-6,104.0,81.1,64.0,74.0,68.6,62.0,99,72,27,30.06,29.98,4,2,0,0.00
2012-7-7,101.0,82.8,64.0,75.0,70.7,64.0,99,72,36,30.07,30.00,3,2,0,0.00
2012-7-8,98.0,81.8,69.0,78.0,72.8,69.0,98,77,41,30.08,29.97,6,2,0,0.00
2012-7-9,97.0,83.1,64.0,75.0,69.7,64.0,100,68,40,30.05,29.97,5,2,0,0.00
2012-7-10,97.0,79.3,65.0,74.0,69.5,65.0,100,76,37,30.05,29.97,5,2,0,0.00
2012-7-11,79.0,65.3,60.0,76.0,65.0,60.0,100,98,90,30.07,30.01,4,2,0,0.00
2012-7-12,77.0,67.5,60.0,73.0,66.4,60.0,100,97,87,30.07,30.02,3,1,0,0.00
2012-7-13,91.0,77.8,62.0,76.0,70.0,62.0,100,80,51,30.12,30.05,4,2,0,0.00
2012-7-14,92.0,77.5,66.0,79.0,72.5,66.0,100,86,58,30.13,30.05,5,2,0,0.00
2012-7-15,94.0,79.7,60.0,77.0,70.5,60.0,100,77,47,30.17,30.08,3,2,0,0.00
2012-7-16,92.0,81.0,61.0,79.0,72.6,61.0,100,78,58,30.12,30.06,5,2,0,0.00
2012-7-17,96.0,89.5,78.0,77.0,75.5,73.0,93,65,49,30.08,29.99,3,2,0,0.00
2012-7-18,91.0,78.5,73.0,78.0,75.2,72.0,97,90,66,30.08,30.01,4,2,0,0.00
2012-7-19,93.0,80.8,63.0,79.0,74.8,63.0,100,83,64,30.10,29.99,4,2,0,0.00
2012-7-20,89.0,80.1,67.0,80.0,75.5,67.0,100,87,72,30.04,29.98,6,3,0,0.00
2012-7-21,91.0,78.9,68.0,81.0,74.5,68.0,100,87,62,30.07,30.00,3,2,0,0.00
2012-7-22,90.0,79.2,65.0,78.0,73.4,65.0,100,84,60,30.16,30.07,6,2,0,0.00
2012-7-23,97.0,84.0,63.0,79.0,72.8,63.0,100,73,48,30.21,30.10,3,2,0,0.00
2012-7-24,95.0,82.1,62.0,80.0,73.1,62.0,100,77,53,30.14,30.02,4,2,0,0.00
2012-7-25,96.0,84.1,62.0,78.0,74.3,62.0,100,75,51,30.07,29.96,4,2,0,0.00
2012-7-26,96.0,84.6,64.0,80.0,74.7,64.0,100,75,53,30.03,29.93,5,2,0,0.00
2012-7-27,92.0,78.7,67.0,80.0,74.4,67.0,100,88,65,30.05,29.97,5,2,0,0.00
2012-7-28,97.0,79.8,59.0,79.0,72.3,59.0,100,81,54,30.10,30.03,3,1,0,0.00
2012-7-29,91.0,79.4,59.0,77.0,68.8,59.0,100,74,49,30.11,30.03,5,2,0,0.00
2012-7-30,93.0,78.9,61.0,79.0,71.8,61.0,100,81,58,30.06,29.95,3,1,0,0.00
2012-7-31,93.0,79.2,67.0,80.0,73.8,67.0,100,86,58,30.01,29.95,4,2,0,0.00
2012-8-1,99.0,84.2,63.0,81.0,73.4,63.0,100,74,45,30.01,29.94,3,2,0,0.00
2012-8-2,95.0,77.0,63.0,79.0,72.4,63.0,100,87,59,30.00,29.92,5,2,0,0.00
2012-8-3,88.0,76.7,65.0,81.0,73.9,65.0,100,92,79,30.02,29.94,6,3,0,0.00
2012-8-4,94.0,78.4,66.0,83.0,74.3,66.0,100,89,61,30.10,30.01,5,2,0,0.00
2012-8-5,92.0,80.7,68.0,79.0,75.2,68.0,100,84,62,30.17,30.09,5,2,0,0.00
2012-8-6,88.0,77.0,63.0,79.0,73.0,63.0,100,89,72,30.11,30.01,3,1,0,0.00
2012-8-7,94.0,78.4,64.0,80.0,72.9,64.0,100,86,54,30.05,29.98,2,1,0,0.00
2012-8-8,95.0,79.9,63.0,80.0,72.8,63.0,100,82,52,30.06,29.98,3,1,0,0.00
2012-8-9,87.0,85.0,83.0,73.0,73.0,73.0,71,66,62,29.94,29.91,3,2,0,0.00
2012-8-10,87.0,74.9,63.0,77.0,71.5,63.0,100,90,73,29.94,29.89,5,3,0,0.00
2012-8-11,85.0,72.4,61.0,68.0,60.5,-99.9,100,76,45,30.03,29.94,5,3,0,0.00
2012-8-12,87.0,71.5,51.0,70.0,58.8,51.0,100,71,36,30.09,30.02,5,1,0,0.00
2012-8-13,84.0,70.5,56.0,74.0,67.1,56.0,100,90,62,30.05,29.98,6,2,0,0.00
2012-8-14,88.0,73.7,62.0,78.0,69.1,62.0,100,87,60,30.02,29.96,4,2,0,0.00
2012-8-15,86.0,70.6,59.0,76.0,67.4,59.0,100,91,60,30.05,29.98,2,0,0,0.00
2012-8-16,90.0,73.0,58.0,76.0,66.3,58.0,100,83,57,30.09,29.97,3,1,0,0.00
2012-8-17,82.0,72.5,63.0,74.0,69.3,63.0,100,90,69,30.06,29.99,9,3,0,0.00
2012-8-18,84.0,76.4,69.0,74.0,71.7,68.0,99,87,66,30.01,29.94,3,1,0,0.00
2012-8-19,85.0,70.6,61.0,73.0,65.7,61.0,100,87,47,29.97,29.93,4,1,0,0.00
2012-8-20,86.0,70.4,53.0,69.0,59.6,53.0,100,76,36,30.01,29.97,4,1,0,0.00
2012-8-21,86.0,69.6,52.0,71.0,59.5,52.0,100,77,36,30.09,30.01,5,1,0,0.00
2012-8-22,88.0,72.9,51.0,71.0,61.2,51.0,100,73,36,30.15,30.07,4,1,0,0.00
2012-8-23,90.0,74.8,54.0,72.0,63.4,54.0,100,73,41,30.15,30.06,2,1,0,0.00
2012-8-24,91.0,75.5,54.0,77.0,66.1,54.0,100,77,42,30.14,30.04,3,1,0,0.00
2012-8-25,87.0,74.9,60.0,76.0,70.4,60.0,100,87,66,30.12,30.07,3,1,0,0.00
2012-8-26,91.0,77.2,57.0,75.0,67.0,57.0,100,75,42,30.17,30.05,3,1,0,0.00
2012-8-27,93.0,77.6,56.0,74.0,67.4,56.0,100,75,42,30.12,30.01,3,2,0,0.00
2012-8-28,85.0,74.1,59.0,76.0,70.0,59.0,100,88,75,30.02,29.96,3,1,0,0.00
2012-8-29,90.0,80.9,71.0,77.0,74.2,71.0,99,82,55,30.02,29.94,3,2,0,0.00
2012-8-30,83.0,79.5,77.0,77.0,75.8,74.0,93,88,80,30.08,29.96,4,2,0,0.00
2012-8-31,90.0,81.2,77.0,80.0,76.8,75.0,94,87,67,30.16,30.09,6,4,0,0.00
2012-9-1,88.0,80.9,76.0,81.0,77.1,74.0,96,88,70,30.16,30.06,6,3,0,0.00
2012-9-2,89.0,80.5,74.0,79.0,76.1,73.0,98,87,73,30.07,29.95,8,5,0,0.00
2012-9-3,85.0,73.0,65.0,80.0,71.1,65.0,100,94,83,29.99,29.91,5,3,0,0.00
2012-9-4,88.0,75.2,67.0,79.0,73.0,67.0,100,94,72,29.96,29.94,2,1,0,0.00
2012-9-5,89.0,78.3,66.0,78.0,73.7,66.0,100,87,66,30.01,29.91,7,2,0,0.00
2012-9-6,90.0,75.4,62.0,77.0,70.1,62.0,100,86,59,30.04,29.96,4,2,0,0.00
2012-9-7,94.0,79.4,59.0,79.0,72.2,59.0,100,81,54,30.02,29.88,3,1,0,0.00
2012-9-8,78.0,72.9,65.0,74.0,68.8,59.0,100,87,68,30.01,29.87,6,3,0,0.00
2012-9-9,80.0,64.9,49.0,62.0,55.1,49.0,100,75,43,30.07,29.98,5,2,0,0.00
2012-9-10,83.0,67.9,49.0,66.0,58.6,49.0,100,77,42,30.15,30.07,3,1,0,0.00
2012-9-11,86.0,70.4,49.0,70.0,61.4,49.0,100,78,43,30.20,30.11,3,1,0,0.00
2012-9-12,82.0,68.7,56.0,68.0,62.2,56.0,100,83,50,30.24,30.16,4,1,0,0.00
2012-9-13,85.0,69.5,53.0,68.0,61.7,53.0,100,80,50,30.25,30.16,4,1,0,0.00
2012-9-14,85.0,67.2,50.0,69.0,59.2,50.0,100,80,44,30.22,30.14,4,1,0,0.00
2012-9-15,87.0,69.8,52.0,71.0,62.4,52.0,100,82,45,30.19,30.09,2,1,0,0.00
2012-9-16,86.0,71.4,58.0,73.0,66.1,58.0,100,86,57,30.12,30.03,2,0,0,0.00
2012-9-17,81.0,69.9,62.0,74.0,68.3,62.0,100,95,75,30.05,29.85,6,2,0,0.00
2012-9-18,76.0,64.2,55.0,70.0,62.0,54.0,100,93,77,30.04,29.83,6,3,0,0.00
2012-9-19,76.0,60.4,44.0,57.0,49.8,44.0,100,74,34,30.12,30.04,5,2,0,0.00
2012-9-20,82.0,61.6,42.0,62.0,52.7,42.0,100,79,40,30.11,30.04,2,1,0,0.00
2012-9-21,83.0,64.8,45.0,65.0,56.2,45.0,100,79,42,30.11,29.99,5,1,0,0.00
2012-9-22,85.0,66.5,53.0,69.0,55.4,-99.9,100,78,34,30.11,30.02,6,2,0,0.00
2012-9-23,77.0,59.4,45.0,55.0,48.3,43.0,100,73,31,30.19,30.10,5,2,0,0.00
2012-9-24,76.0,57.2,37.0,59.0,45.7,37.0,100,73,31,30.21,30.12,3,1,0,0.00
2012-9-25,84.0,63.9,47.0,61.0,55.3,47.0,100,78,38,30.15,30.09,5,2,0,0.00
2012-9-26,86.0,68.0,50.0,68.0,60.4,50.0,100,81,46,30.17,30.10,5,2,0,0.00
2012-9-27,88.0,70.8,52.0,72.0,64.5,52.0,100,84,53,30.18,30.08,3,1,0,0.00
2012-9-28,87.0,67.1,54.0,74.0,64.2,54.0,100,92,53,30.13,30.02,3,0,0,0.00
2012-9-29,79.0,68.2,60.0,69.0,64.2,60.0,100,88,68,30.06,29.97,4,1,0,0.00
2012-9-30,71.0,63.9,54.0,66.0,61.5,54.0,100,92,77,29.98,29.82,4,2,0,0.00
2012-10-1,78.0,68.3,60.0,75.0,67.0,60.0,100,96,83,29.81,29.66,8,4,0,0.00
2012-10-2,71.0,60.1,51.0,63.0,58.2,51.0,100,94,69,30.01,29.78,3,2,0,0.00
2012-10-3,77.0,60.4,46.0,65.0,55.8,46.0,100,87,55,30.16,30.02,5,1,0,0.00
2012-10-4,83.0,65.0,48.0,68.0,58.9,48.0,100,84,49,30.25,30.16,2,1,0,0.00
2012-10-5,84.0,65.8,48.0,69.0,58.4,48.0,100,81,44,30.18,30.03,4,1,0,0.00
2012-10-6,63.0,56.3,52.0,63.0,53.7,49.0,100,92,80,30.12,30.02,7,4,0,0.00
2012-10-7,62.0,53.7,50.0,50.0,46.3,43.0,95,77,50,30.19,30.09,7,4,0,0.00
2012-10-8,59.0,52.4,43.0,52.0,48.4,43.0,100,87,66,30.19,30.12,4,2,0,0.00
2012-10-9,70.0,51.0,38.0,56.0,46.3,38.0,100,87,54,30.16,30.05,3,1,0,0.00
2012-10-10,72.0,58.2,43.0,61.0,53.9,43.0,100,87,63,30.17,30.07,5,2,0,0.00
2012-10-11,70.0,52.9,39.0,57.0,48.1,39.0,100,86,59,30.25,30.17,3,1,0,0.00
2012-10-12,79.0,65.1,54.0,68.0,62.6,54.0,100,93,67,30.27,30.17,3,1,0,0.00
2012-10-13,82.0,67.0,55.0,68.0,62.4,55.0,100,86,62,30.24,30.15,5,2,0,0.00
2012-10-14,77.0,71.6,67.0,70.0,66.9,61.0,99,85,70,30.16,29.99,9,5,0,0.00
2012-10-15,76.0,63.7,48.0,68.0,56.0,48.0,100,80,39,30.04,29.99,6,2,0,0.00
2012-10-16,75.0,55.1,41.0,59.0,50.0,41.0,100,87,43,30.04,29.93,2,0,0,0.00
2012-10-17,78.0,61.4,43.0,61.0,50.4,43.0,100,73,37,29.95,29.84,8,3,0,0.00
2012-10-18,70.0,60.7,52.0,62.0,55.9,43.0,100,86,40,29.91,29.79,6,2,0,0.00
2012-10-19,71.0,59.8,50.0,49.0,43.4,38.0,93,58,33,29.90,29.84,8,4,0,0.00
2012-10-20,70.0,54.1,39.0,53.0,46.5,39.0,100,80,48,30.03,29.91,5,1,0,0.00
2012-10-21,80.0,56.4,39.0,57.0,48.9,39.0,100,82,40,30.13,30.03,3,1,0,0.00
2012-10-22,84.0,63.8,45.0,61.0,51.8,45.0,100,73,34,30.18,30.10,4,2,0,0.00
2012-10-23,82.0,63.6,45.0,60.0,52.0,45.0,100,72,39,30.15,30.07,5,2,0,0.00
2012-10-24,83.0,61.6,41.0,60.0,51.9,41.0,100,76,42,30.16,30.08,3,1,0,0.00
2012-10-25,84.0,64.6,45.0,66.0,56.7,45.0,100,80,49,30.09,30.02,5,2,0,0.00
2012-10-26,79.0,62.6,47.0,67.0,57.2,47.0,100,84,62,30.07,29.99,7,2,0,0.00
2012-10-27,53.0,50.5,48.0,49.0,47.1,46.0,97,88,79,30.06,30.01,7,6,0,0.00
2012-10-28,61.0,53.4,49.0,47.0,41.2,35.0,79,64,40,30.06,29.98,9,7,0,0.00
2012-10-29,57.0,48.3,38.0,36.0,30.4,21.0,85,53,26,30.11,29.98,10,7,0,0.00
2012-10-30,60.0,48.5,39.0,34.0,29.8,27.0,82,52,28,29.97,29.90,9,5,0,0.00
2012-10-31,65.0,42.1,32.0,42.0,34.2,31.0,100,79,28,29.99,29.94,6,1,0,0.00
2012-11-1,68.0,47.5,28.0,42.0,31.8,23.0,100,66,23,30.08,30.00,5,2,0,0.00
2012-11-2,77.0,55.3,36.0,55.0,46.1,36.0,100,77,37,30.04,29.99,5,1,0,0.00
2012-11-3,86.0,64.0,40.0,62.0,51.2,40.0,100,70,33,30.09,29.98,6,2,0,0.00
2012-11-4,63.0,53.8,38.0,60.0,48.1,38.0,100,83,49,30.12,30.04,6,3,0,0.00
2012-11-5,61.0,48.2,32.0,47.0,41.0,32.0,100,79,51,30.10,30.01,3,1,0,0.00
2012-11-6,54.0,49.7,45.0,50.0,48.0,45.0,100,94,80,30.06,29.99,3,2,0,0.00
2012-11-7,56.0,46.3,36.0,47.0,43.6,36.0,100,91,65,30.12,29.97,5,2,0,0.00
2012-11-8,59.0,42.1,31.0,49.0,38.6,31.0,100,90,56,30.22,30.14,3,1,0,0.00
2012-11-9,70.0,47.4,29.0,50.0,39.6,29.0,100,80,32,30.26,30.16,4,1,0,0.00
2012-11-10,73.0,53.3,35.0,53.0,45.3,35.0,100,79,41,30.26,30.18,5,2,0,0.00
2012-11-11,73.0,61.6,42.0,55.0,49.5,42.0,99,67,46,30.25,30.15,8,4,0,0.00
2012-11-12,66.0,51.5,33.0,60.0,49.1,33.0,100,92,66,30.33,30.12,6,3,0,0.00
2012-11-13,54.0,43.3,30.0,34.0,30.3,27.0,100,64,36,30.38,30.27,8,4,0,0.00
2012-11-14,58.0,42.6,31.0,41.0,33.4,-99.9,100,77,48,30.31,30.22,4,2,0,0.00
2012-11-15,61.0,42.7,29.0,44.0,36.1,29.0,100,82,41,30.27,30.19,5,1,0,0.00
2012-11-16,63.0,45.1,29.0,42.0,32.8,29.0,100,68,30,30.30,30.23,5,2,0,0.00
2012-11-17,65.0,45.0,28.0,42.0,34.7,28.0,100,74,29,30.36,30.27,5,1,0,0.00
2012-11-18,66.0,46.2,28.0,43.0,36.2,28.0,100,74,34,30.34,30.24,5,1,0,0.00
2012-11-19,69.0,46.7,32.0,47.0,40.8,32.0,100,84,43,30.29,30.16,3,1,0,0.00
2012-11-20,71.0,52.4,36.0,51.0,44.4,36.0,100,79,40,30.19,30.08,3,1,0,0.00
2012-11-21,70.0,52.6,38.0,53.0,46.2,38.0,100,82,50,30.17,30.10,5,1,0,0.00
2012-11-22,74.0,50.7,33.0,54.0,42.0,33.0,100,78,32,30.21,30.13,4,1,0,0.00
2012-11-23,62.0,50.0,37.0,54.0,44.5,34.0,100,82,57,30.18,30.13,6,2,0,0.00
2012-11-24,46.0,37.7,26.0,32.0,26.2,23.0,98,65,40,30.26,30.15,7,4,0,0.00
2012-11-25,60.0,38.5,22.0,35.0,26.8,22.0,100,71,25,30.17,30.06,5,1,0,0.00
2012-11-26,54.0,36.9,31.0,54.0,35.8,30.0,100,95,79,30.15,30.10,0,0,0,0.00
2012-11-27,57.0,47.3,42.0,56.0,44.5,37.0,100,90,80,30.25,30.10,6,5,0,0.00
2012-11-28,54.0,41.7,29.0,36.0,33.2,29.0,100,75,42,30.38,30.27,5,2,0,0.00
2012-11-29,64.0,42.2,24.0,40.0,30.1,24.0,100,71,26,30.35,30.23,4,1,0,0.00
2012-11-30,67.0,47.4,30.0,50.0,41.4,30.0,100,83,46,30.29,30.19,5,2,0,0.00
2012-12-1,73.0,51.7,35.0,58.0,45.0,35.0,100,82,50,30.27,30.19,6,2,0,0.00
2012-12-2,73.0,58.7,46.0,52.0,48.3,44.0,96,71,42,30.27,30.18,8,3,0,0.00
2012-12-3,71.0,54.0,41.0,55.0,48.3,41.0,99,83,46,30.23,30.16,6,1,0,0.00
2012-12-4,68.0,61.0,52.0,60.0,57.3,51.0,99,89,75,30.23,30.15,6,4,0,0.00
2012-12-5,58.0,53.8,50.0,55.0,52.4,49.0,100,95,78,30.23,30.11,4,2,0,0.00
2012-12-6,69.0,54.2,46.0,54.0,42.4,-99.9,100,75,57,30.11,30.03,4,2,0,0.00
2012-12-7,63.0,57.7,51.0,56.0,52.4,44.0,92,83,74,30.06,29.98,5,3,0,0.00
2012-12-8,67.0,60.0,58.0,59.0,57.8,57.0,99,93,74,30.03,29.98,5,3,0,0.00
2012-12-9,68.0,63.6,60.0,60.0,57.5,56.0,95,81,67,30.05,29.91,7,5,0,0.00
2012-12-10,42.0,39.3,37.0,41.0,35.5,32.0,96,87,81,30.02,29.94,5,5,0,0.00
2012-12-11,41.0,34.2,31.0,31.0,29.3,27.0,97,83,59,30.18,30.04,5,3,0,0.00
2012-12-12,48.0,37.4,28.0,27.0,23.9,16.0,90,63,27,30.24,30.19,6,3,0,0.00
2012-12-13,56.0,35.3,20.0,32.0,26.2,19.0,98,75,29,30.32,30.22,3,1,0,0.00
2012-12-14,59.0,42.6,24.0,40.0,34.0,23.0,98,75,42,30.28,30.12,4,1,0,0.00
2012-12-15,63.0,55.2,44.0,55.0,48.4,40.0,95,78,65,30.13,30.00,8,5,0,0.00
2012-12-16,61.0,58.0,55.0,59.0,56.9,54.0,100,96,88,29.99,29.87,8,4,0,0.00
2012-12-17,63.0,56.4,49.0,57.0,53.4,46.0,100,90,72,29.89,29.78,6,4,0,0.00
2012-12-18,60.0,45.4,32.0,41.0,36.8,31.0,100,75,39,30.03,29.91,4,2,0,0.00
2012-12-19,68.0,54.9,37.0,45.0,39.1,36.0,98,59,31,30.08,29.98,5,2,0,0.00
2012-12-20,59.0,49.1,38.0,58.0,39.9,21.0,97,72,48,30.04,29.75,11,7,0,0.00
2012-12-21,45.0,36.5,25.0,19.0,16.0,12.0,76,44,28,30.24,30.05,8,6,0,0.00
2012-12-22,52.0,33.2,18.0,27.0,20.4,14.0,97,67,25,30.30,30.17,2,1,0,0.00
2012-12-23,54.0,44.3,28.0,47.0,34.8,26.0,96,71,44,30.14,29.99,6,4,0,0.00
2012-12-24,65.0,53.0,39.0,56.0,49.2,39.0,99,88,62,29.98,29.90,6,4,0,0.00
2012-12-25,52.0,46.8,36.0,51.0,46.0,36.0,100,96,89,30.00,29.64,8,3,0,0.00
2012-12-26,52.0,36.5,33.0,47.0,32.1,27.0,95,84,77,30.10,29.61,9,7,0,0.00
2012-12-27,36.0,32.1,26.0,28.0,27.3,26.0,99,82,71,30.15,30.09,5,2,0,0.00
2012-12-28,43.0,37.6,29.0,41.0,35.1,29.0,99,91,81,30.08,29.84,6,3,0,0.00
2012-12-29,41.0,35.0,32.0,41.0,29.1,24.0,97,79,72,30.30,29.91,7,5,0,0.00
2012-12-30,41.0,31.1,24.0,25.0,22.5,20.0,97,72,47,30.42,30.30,5,2,0,0.00
2012-12-31,51.0,42.4,29.0,43.0,30.9,26.0,97,65,45,30.30,30.06,7,3,0,0.00